Clearwater, Canada
Current Conditions -  °F | °C
As of 1:00 AM on Monday 22 Dec 2014 (Local Time) from CYKA Reporting Station
Overcast Overcast  
Wind Chill: 36°   Ceiling: 700
Heat Index: 36°   Visibility: 10mi
Dew Point: 32°   Wind: 0mph
Humidity: 87%   Direction: NA
Pressure: 29.96"   Gusts: NA
Location:  51.65°N, 120.03°W
Report Text: CYKA 220900Z 00000KT 10SM OVC007 02/00 A2996 RMK ST8 SLP159
Loading
Personal Weather Stations






























Interactive Weather Map New forecast layout! Learn more

10-Day Weather Forecast

Advertisements
Track Severe Weather on mobile